createdAt,value
2023-02-15T00:00:11.467Z,-0.47
2023-02-15T00:02:39.799Z,-0.50
2023-02-15T00:05:08.089Z,-0.89
2023-02-15T00:07:35.927Z,-1.48
2023-02-15T00:10:04.231Z,-0.93
2023-02-15T00:12:31.881Z,-1.25
2023-02-15T00:14:59.592Z,-1.18
2023-02-15T00:17:30.183Z,-1.14
2023-02-15T00:19:57.972Z,-0.81
2023-02-15T00:22:26.549Z,-1.34
2023-02-15T00:24:54.312Z,-0.69
2023-02-15T00:27:22.026Z,-1.06
2023-02-15T00:29:49.864Z,-0.82
2023-02-15T00:32:17.590Z,-0.78
2023-02-15T00:34:45.363Z,-1.27
2023-02-15T00:37:13.054Z,-1.30
2023-02-15T00:39:40.849Z,-0.79
2023-02-15T00:42:08.773Z,-0.82
2023-02-15T00:44:36.541Z,-1.37
2023-02-15T00:47:04.301Z,-1.64
2023-02-15T00:49:32.098Z,-1.21
2023-02-15T00:51:59.774Z,-1.29
2023-02-15T00:54:27.516Z,-1.21
2023-02-15T00:56:55.231Z,-1.10
2023-02-15T00:59:23.071Z,-0.75
2023-02-15T01:01:50.852Z,-0.91
2023-02-15T01:04:20.779Z,-1.39
2023-02-15T01:06:48.528Z,-0.87
2023-02-15T01:09:16.556Z,-0.78
2023-02-15T01:11:44.221Z,-0.70
2023-02-15T01:14:12.178Z,-1.14
2023-02-15T01:16:40.141Z,-1.42
2023-02-15T01:19:07.991Z,-1.01
2023-02-15T01:21:35.806Z,-1.29
2023-02-15T01:24:04.393Z,-1.12
2023-02-15T01:26:32.079Z,-1.27
2023-02-15T01:29:00.159Z,-0.95
2023-02-15T01:31:28.055Z,-1.25
2023-02-15T01:33:55.921Z,-1.37
2023-02-15T01:36:23.656Z,-0.92
2023-02-15T01:38:53.237Z,-0.84
2023-02-15T01:41:21.058Z,-0.94
2023-02-15T01:44:13.133Z,-1.82
2023-02-15T01:46:47.136Z,-1.47
2023-02-15T01:49:16.386Z,-1.17
2023-02-15T01:51:46.177Z,-1.23
2023-02-15T01:54:27.188Z,-0.96
2023-02-15T01:56:56.074Z,-1.10
2023-02-15T01:59:24.191Z,-1.81
2023-02-15T02:01:55.728Z,-1.52
2023-02-15T02:04:44.749Z,-1.37
2023-02-15T02:07:13.535Z,-1.54
2023-02-15T02:09:41.228Z,-1.26
2023-02-15T02:12:08.971Z,-2.16
2023-02-15T02:14:37.243Z,-1.82
2023-02-15T02:17:08.199Z,-1.41
2023-02-15T02:20:01.009Z,-1.26
2023-02-15T02:22:59.755Z,-1.11
2023-02-15T02:25:37.829Z,-1.78
2023-02-15T02:28:17.906Z,-1.55
2023-02-15T02:30:45.671Z,-1.75
2023-02-15T02:33:31.463Z,-1.40
2023-02-15T02:36:09.032Z,-1.76
2023-02-15T02:38:46.612Z,-1.55
2023-02-15T02:41:24.683Z,-1.83
2023-02-15T02:44:07.627Z,-1.86
2023-02-15T02:46:52.712Z,-1.62
2023-02-15T02:49:33.569Z,-1.74
2023-02-15T02:52:03.201Z,-1.98
2023-02-15T02:54:31.228Z,-1.79
2023-02-15T02:57:00.489Z,-1.56
2023-02-15T02:59:35.886Z,-1.67
2023-02-15T03:02:13.814Z,-1.52
2023-02-15T03:04:44.475Z,-1.76
2023-02-15T03:07:15.656Z,-1.99
2023-02-15T03:09:45.407Z,-1.74
2023-02-15T03:12:20.622Z,-1.90
2023-02-15T03:15:02.072Z,-1.73
2023-02-15T03:17:32.016Z,-1.90
2023-02-15T03:20:04.266Z,-1.52
2023-02-15T03:22:39.425Z,-1.78
2023-02-15T03:25:11.366Z,-1.95
2023-02-15T03:27:42.427Z,-1.83
2023-02-15T03:30:11.296Z,-1.76
2023-02-15T03:32:39.096Z,-1.97
2023-02-15T03:35:07.634Z,-2.04
2023-02-15T03:37:55.768Z,-1.81
2023-02-15T03:40:48.298Z,-2.04
2023-02-15T03:43:37.691Z,-1.84
2023-02-15T03:46:13.301Z,-1.65
2023-02-15T03:48:46.791Z,-1.78
2023-02-15T03:51:36.273Z,-1.88
2023-02-15T03:54:35.567Z,-2.07
2023-02-15T03:57:21.868Z,-2.57
2023-02-15T04:00:08.093Z,-3.28
2023-02-15T04:03:04.621Z,-2.51
2023-02-15T04:05:32.333Z,-2.26
2023-02-15T04:07:59.989Z,-2.66
2023-02-15T04:10:46.385Z,-2.44
2023-02-15T04:13:14.084Z,-2.41
2023-02-15T04:16:00.884Z,-2.13
2023-02-15T04:18:47.352Z,-2.28
2023-02-15T04:21:33.707Z,-2.09
2023-02-15T04:24:20.101Z,-2.20
2023-02-15T04:26:48.833Z,-2.43
2023-02-15T04:29:16.592Z,-2.38
2023-02-15T04:31:44.534Z,-2.43
2023-02-15T04:34:12.351Z,-2.52
2023-02-15T04:36:40.151Z,-2.33
2023-02-15T04:39:08.337Z,-2.17
2023-02-15T04:41:36.053Z,-2.25
2023-02-15T04:44:05.143Z,-2.42
2023-02-15T04:46:32.838Z,-2.69
2023-02-15T04:49:00.671Z,-2.54
2023-02-15T04:51:28.430Z,-2.57
2023-02-15T04:53:57.011Z,-2.87
2023-02-15T04:56:24.726Z,-2.62
2023-02-15T04:58:52.512Z,-2.78
2023-02-15T05:01:20.273Z,-2.64
2023-02-15T05:03:48.027Z,-2.57
2023-02-15T05:06:15.766Z,-2.88
2023-02-15T05:08:43.487Z,-2.84
2023-02-15T05:11:11.537Z,-2.78
2023-02-15T05:13:39.261Z,-2.55
2023-02-15T05:16:06.948Z,-2.67
2023-02-15T05:18:34.683Z,-2.55
2023-02-15T05:21:02.393Z,-2.60
2023-02-15T05:23:30.135Z,-2.73
2023-02-15T05:26:16.780Z,-3.16
2023-02-15T05:28:44.509Z,-3.08
2023-02-15T05:31:17.196Z,-3.18
2023-02-15T05:33:45.248Z,-3.33
2023-02-15T05:36:12.939Z,-3.31
2023-02-15T05:38:40.821Z,-3.20
2023-02-15T05:41:08.871Z,-3.38
2023-02-15T05:43:36.654Z,-3.15
2023-02-15T05:46:04.870Z,-4.08
2023-02-15T05:48:32.825Z,-3.61
2023-02-15T05:51:01.068Z,-3.28
2023-02-15T05:53:29.484Z,-3.03
2023-02-15T05:56:00.646Z,-2.88
2023-02-15T05:58:36.505Z,-2.97
2023-02-15T06:01:14.573Z,-2.67
2023-02-15T06:03:42.481Z,-3.09
2023-02-15T06:06:10.203Z,-2.82
2023-02-15T06:08:38.282Z,-2.86
2023-02-15T06:11:06.141Z,-3.04
2023-02-15T06:13:36.478Z,-2.59
2023-02-15T06:16:06.778Z,-2.76
2023-02-15T06:18:34.903Z,-2.59
2023-02-15T06:21:02.691Z,-2.33
2023-02-15T06:23:30.342Z,-2.84
2023-02-15T06:25:58.132Z,-2.17
2023-02-15T06:28:26.592Z,-1.29
2023-02-15T06:30:54.488Z,-0.48
2023-02-15T06:33:22.487Z,0.30
2023-02-15T06:35:51.637Z,0.90
2023-02-15T06:38:19.324Z,1.69
2023-02-15T06:40:48.686Z,2.60
2023-02-15T06:43:17.452Z,3.41
2023-02-15T06:45:46.265Z,4.11
2023-02-15T06:48:13.991Z,4.54
2023-02-15T06:50:41.816Z,5.10
2023-02-15T06:53:09.571Z,5.35
2023-02-15T06:55:37.309Z,5.69
2023-02-15T06:58:04.985Z,6.62
2023-02-15T07:00:32.856Z,7.28
2023-02-15T07:03:00.834Z,7.78
2023-02-15T07:05:32.232Z,7.93
2023-02-15T07:08:00.704Z,8.31
2023-02-15T07:10:30.163Z,8.71
2023-02-15T07:12:57.923Z,9.13
2023-02-15T07:15:25.717Z,9.36
2023-02-15T07:17:55.193Z,9.23
2023-02-15T07:20:24.105Z,9.85
2023-02-15T07:22:51.887Z,10.92
2023-02-15T07:25:19.677Z,11.32
2023-02-15T07:27:47.364Z,11.55
2023-02-15T07:30:16.637Z,11.99
2023-02-15T07:33:05.311Z,12.65
2023-02-15T07:35:34.017Z,13.24
2023-02-15T07:38:02.019Z,13.62
2023-02-15T07:40:29.764Z,14.18
2023-02-15T07:42:58.730Z,14.64
2023-02-15T07:45:26.479Z,14.72
2023-02-15T07:47:54.200Z,14.84
2023-02-15T07:50:23.903Z,14.69
2023-02-15T07:52:53.092Z,14.59
2023-02-15T07:55:20.851Z,13.71
2023-02-15T07:57:49.823Z,14.07
2023-02-15T08:00:21.142Z,14.05
2023-02-15T08:02:50.116Z,14.54
2023-02-15T08:05:19.289Z,15.37
2023-02-15T08:07:48.528Z,16.22
2023-02-15T08:10:36.326Z,17.00
2023-02-15T08:13:04.059Z,17.42
2023-02-15T08:15:32.550Z,17.84
2023-02-15T08:18:00.355Z,18.06
2023-02-15T08:20:28.720Z,18.60
2023-02-15T08:22:56.488Z,19.05
2023-02-15T08:25:24.735Z,19.08
2023-02-15T08:27:52.502Z,18.86
2023-02-15T08:30:20.801Z,19.32
2023-02-15T08:32:48.699Z,19.44
2023-02-15T08:35:16.448Z,19.39
2023-02-15T08:37:44.175Z,19.23
2023-02-15T08:40:14.319Z,18.30
2023-02-15T08:42:43.065Z,17.68
2023-02-15T08:45:10.925Z,16.80
2023-02-15T08:47:38.731Z,15.33
2023-02-15T08:50:07.982Z,13.88
2023-02-15T08:52:35.661Z,12.99
2023-02-15T08:55:03.476Z,12.84
2023-02-15T08:57:31.143Z,13.87
2023-02-15T08:59:58.896Z,15.00
2023-02-15T09:02:26.708Z,16.36
2023-02-15T09:04:54.960Z,16.35
2023-02-15T09:07:22.814Z,14.46
2023-02-15T09:09:50.606Z,13.52
2023-02-15T09:12:18.324Z,13.27
2023-02-15T09:14:46.048Z,11.90
2023-02-15T09:17:16.037Z,9.93
2023-02-15T09:19:43.880Z,10.20
2023-02-15T09:22:11.788Z,9.96
2023-02-15T09:24:39.564Z,9.24
2023-02-15T09:27:08.157Z,9.41
2023-02-15T09:29:37.571Z,9.30
2023-02-15T09:32:05.387Z,8.66
2023-02-15T09:34:35.047Z,8.70
2023-02-15T09:37:03.823Z,7.88
2023-02-15T09:39:31.492Z,7.77
2023-02-15T09:42:11.299Z,7.40
2023-02-15T09:45:04.866Z,7.78
2023-02-15T09:48:02.608Z,7.10
2023-02-15T09:50:56.388Z,8.09
2023-02-15T09:53:49.050Z,8.28
2023-02-15T09:56:31.750Z,7.54
2023-02-15T09:59:11.746Z,7.93
2023-02-15T10:02:01.341Z,6.36
2023-02-15T10:04:41.671Z,5.52
2023-02-15T10:07:56.181Z,5.96
2023-02-15T10:10:43.459Z,6.01
2023-02-15T10:13:44.624Z,5.95
2023-02-15T10:16:37.168Z,5.94
2023-02-15T10:19:14.757Z,6.35
2023-02-15T10:21:58.992Z,6.71
2023-02-15T10:24:30.875Z,5.87
2023-02-15T10:27:04.062Z,5.96
2023-02-15T10:29:39.366Z,6.99
2023-02-15T10:32:10.182Z,6.78
2023-02-15T10:34:40.450Z,5.86
2023-02-15T10:37:14.072Z,6.78
2023-02-15T10:39:41.758Z,6.23
2023-02-15T10:42:34.075Z,6.87
2023-02-15T10:45:26.024Z,6.89
2023-02-15T10:48:00.296Z,6.92
2023-02-15T10:50:40.525Z,6.53
2023-02-15T10:53:12.248Z,6.99
2023-02-15T10:56:07.338Z,7.03
2023-02-15T10:59:02.558Z,6.59
2023-02-15T11:01:50.042Z,6.29
2023-02-15T11:04:17.798Z,6.92
2023-02-15T11:06:52.294Z,7.20
2023-02-15T11:09:21.730Z,7.25
2023-02-15T11:11:51.415Z,6.90
2023-02-15T11:14:23.068Z,7.06
2023-02-15T11:16:52.898Z,6.73
2023-02-15T11:19:21.740Z,7.35
2023-02-15T11:21:51.364Z,6.85
2023-02-15T11:24:21.128Z,7.07
2023-02-15T11:26:56.071Z,7.77
2023-02-15T11:29:31.800Z,7.77
2023-02-15T11:32:20.436Z,6.91
2023-02-15T11:34:58.798Z,7.19
2023-02-15T11:37:37.927Z,7.31
2023-02-15T11:40:19.375Z,7.45
2023-02-15T11:42:50.863Z,7.49
2023-02-15T11:45:31.472Z,6.98
2023-02-15T11:47:59.686Z,7.38
2023-02-15T11:50:32.319Z,6.77
2023-02-15T11:53:05.409Z,6.73
2023-02-15T11:55:35.836Z,7.08
2023-02-15T11:58:40.727Z,7.42
2023-02-15T12:01:33.605Z,7.77
2023-02-15T12:04:25.159Z,7.82
2023-02-15T12:07:04.119Z,7.65
2023-02-15T12:09:38.766Z,7.77
2023-02-15T12:12:24.997Z,8.30
2023-02-15T12:14:57.025Z,8.95
2023-02-15T12:17:29.385Z,8.67
2023-02-15T12:19:58.744Z,6.99
2023-02-15T12:22:27.296Z,7.49
2023-02-15T12:25:00.573Z,8.04
2023-02-15T12:27:32.072Z,7.63
2023-02-15T12:30:03.333Z,7.61
2023-02-15T12:32:34.339Z,7.39
2023-02-15T12:35:10.806Z,8.31
2023-02-15T12:37:38.542Z,7.81
2023-02-15T12:40:31.402Z,7.48
2023-02-15T12:42:59.462Z,7.88
2023-02-15T12:45:31.717Z,8.10
2023-02-15T12:48:22.456Z,8.43
2023-02-15T12:50:58.264Z,8.78
2023-02-15T12:53:34.039Z,8.01
2023-02-15T12:56:07.362Z,8.24
2023-02-15T12:58:36.270Z,8.86
2023-02-15T13:01:16.977Z,8.35
2023-02-15T13:03:56.621Z,8.51
2023-02-15T13:06:26.057Z,8.13
2023-02-15T13:08:59.391Z,7.77
2023-02-15T13:11:31.318Z,8.67
2023-02-15T13:14:00.456Z,8.15
2023-02-15T13:16:35.111Z,8.29
2023-02-15T13:19:57.917Z,8.03
2023-02-15T13:22:33.712Z,8.25
2023-02-15T13:25:05.144Z,9.13
2023-02-15T13:27:37.719Z,8.28
2023-02-15T13:30:19.676Z,9.17
2023-02-15T13:32:47.508Z,9.05
2023-02-15T13:35:16.842Z,8.96
2023-02-15T13:37:47.408Z,8.59
2023-02-15T13:40:34.433Z,8.35
2023-02-15T13:43:21.921Z,9.22
2023-02-15T13:46:20.812Z,9.65
2023-02-15T13:49:13.552Z,9.52
2023-02-15T13:51:57.053Z,9.58
2023-02-15T13:54:33.822Z,9.07
2023-02-15T13:57:36.033Z,9.55
2023-02-15T14:00:31.833Z,9.57
2023-02-15T14:03:18.762Z,8.44
2023-02-15T14:05:56.683Z,9.30
2023-02-15T14:08:46.763Z,9.36
2023-02-15T14:11:48.508Z,8.97
2023-02-15T14:14:31.620Z,9.48
2023-02-15T14:17:34.877Z,9.11
2023-02-15T14:20:24.264Z,9.14
2023-02-15T14:23:02.192Z,9.06
2023-02-15T14:25:32.956Z,9.15
2023-02-15T14:28:16.103Z,9.35
2023-02-15T14:30:45.994Z,8.37
2023-02-15T14:33:37.067Z,9.24
2023-02-15T14:36:07.624Z,9.55
2023-02-15T14:38:53.722Z,9.34
2023-02-15T14:41:27.352Z,9.68
2023-02-15T14:44:16.677Z,9.96
2023-02-15T14:46:48.480Z,9.13
2023-02-15T14:49:27.302Z,8.67
2023-02-15T14:51:57.628Z,8.96
2023-02-15T14:54:31.266Z,9.09
2023-02-15T14:57:01.735Z,9.03
2023-02-15T14:59:59.145Z,9.32
2023-02-15T15:02:49.658Z,9.59
2023-02-15T15:05:36.175Z,9.02
2023-02-15T15:08:05.616Z,8.86
2023-02-15T15:10:34.728Z,9.18
2023-02-15T15:13:31.089Z,9.23
2023-02-15T15:16:32.670Z,9.00
2023-02-15T15:19:03.805Z,8.92
2023-02-15T15:21:50.213Z,8.88
2023-02-15T15:24:39.690Z,8.96
2023-02-15T15:27:46.423Z,8.99
2023-02-15T15:30:14.188Z,8.96
2023-02-15T15:32:57.742Z,8.91
2023-02-15T15:35:44.193Z,8.81
2023-02-15T15:38:49.604Z,8.69
2023-02-15T15:41:43.144Z,8.59
2023-02-15T15:44:13.838Z,8.39
2023-02-15T15:46:50.529Z,8.11
2023-02-15T15:49:22.237Z,7.87
2023-02-15T15:51:50.204Z,7.84
2023-02-15T15:54:25.679Z,7.19
2023-02-15T15:57:04.956Z,6.70
2023-02-15T15:59:33.760Z,6.86
2023-02-15T16:02:08.211Z,6.79
2023-02-15T16:04:36.132Z,6.50
2023-02-15T16:07:18.924Z,6.13
2023-02-15T16:10:06.852Z,6.29
2023-02-15T16:12:35.905Z,6.43
2023-02-15T16:15:31.447Z,6.39
2023-02-15T16:17:59.324Z,5.57
2023-02-15T16:20:33.205Z,5.64
2023-02-15T16:23:16.956Z,6.03
2023-02-15T16:26:06.280Z,5.62
2023-02-15T16:28:35.257Z,5.69
2023-02-15T16:31:29.248Z,5.85
2023-02-15T16:33:57.047Z,5.61
2023-02-15T16:36:27.121Z,5.35
2023-02-15T16:38:57.710Z,5.35
2023-02-15T16:41:28.181Z,5.17
2023-02-15T16:43:58.157Z,5.23
2023-02-15T16:46:29.686Z,4.89
2023-02-15T16:48:59.589Z,4.83
2023-02-15T16:51:29.915Z,4.84
2023-02-15T16:53:58.514Z,4.67
2023-02-15T16:56:31.406Z,4.64
2023-02-15T16:58:59.573Z,4.59
2023-02-15T17:01:29.294Z,4.62
2023-02-15T17:04:22.310Z,3.61
2023-02-15T17:07:07.396Z,3.30
2023-02-15T17:09:35.213Z,3.50
2023-02-15T17:12:03.331Z,3.77
2023-02-15T17:14:32.047Z,4.03
2023-02-15T17:17:01.894Z,3.64
2023-02-15T17:19:32.112Z,3.87
2023-02-15T17:22:04.744Z,3.90
2023-02-15T17:24:32.455Z,3.80
2023-02-15T17:27:03.465Z,3.55
2023-02-15T17:29:35.758Z,3.11
2023-02-15T17:32:04.138Z,3.19
2023-02-15T17:34:45.644Z,3.08
2023-02-15T17:37:14.744Z,1.96
2023-02-15T17:39:42.709Z,1.84
2023-02-15T17:42:10.523Z,1.17
2023-02-15T17:44:38.234Z,1.05
2023-02-15T17:47:06.217Z,1.32
2023-02-15T17:49:38.123Z,2.02
2023-02-15T17:52:06.105Z,1.56
2023-02-15T17:54:52.396Z,2.25
2023-02-15T17:57:20.096Z,2.27
2023-02-15T18:00:06.299Z,2.49
2023-02-15T18:02:58.804Z,2.21
2023-02-15T18:05:45.331Z,2.24
2023-02-15T18:08:35.664Z,2.27
2023-02-15T18:11:22.593Z,2.20
2023-02-15T18:13:50.388Z,2.40
2023-02-15T18:16:23.887Z,2.35
2023-02-15T18:18:51.687Z,2.25
2023-02-15T18:21:20.282Z,2.43
2023-02-15T18:23:48.086Z,2.74
2023-02-15T18:26:23.277Z,2.21
2023-02-15T18:28:52.039Z,2.57
2023-02-15T18:31:19.800Z,2.52
2023-02-15T18:33:52.610Z,2.69
2023-02-15T18:36:27.989Z,2.62
2023-02-15T18:38:56.264Z,2.50
2023-02-15T18:41:24.087Z,2.44
2023-02-15T18:43:53.820Z,2.51
2023-02-15T18:46:22.007Z,1.98
2023-02-15T18:48:49.892Z,2.13
2023-02-15T18:51:20.948Z,1.99
2023-02-15T18:53:52.724Z,1.86
2023-02-15T18:56:22.064Z,1.88
2023-02-15T18:58:49.954Z,1.69
2023-02-15T19:01:19.455Z,1.69
2023-02-15T19:03:48.188Z,1.62
2023-02-15T19:06:17.871Z,1.36
2023-02-15T19:08:47.176Z,1.04
2023-02-15T19:11:16.200Z,1.09
2023-02-15T19:13:43.954Z,0.99
2023-02-15T19:16:32.321Z,0.84
2023-02-15T19:19:00.621Z,1.03
2023-02-15T19:21:29.882Z,1.04
2023-02-15T19:24:03.915Z,1.55
2023-02-15T19:26:44.524Z,1.31
2023-02-15T19:29:14.249Z,1.66
2023-02-15T19:31:42.519Z,1.24
2023-02-15T19:34:15.527Z,1.19
2023-02-15T19:36:47.659Z,0.99
2023-02-15T19:39:30.279Z,0.95
2023-02-15T19:41:58.166Z,1.03
2023-02-15T19:44:26.001Z,1.01
2023-02-15T19:46:54.297Z,0.97
2023-02-15T19:49:22.059Z,1.27
2023-02-15T19:51:49.880Z,1.36
2023-02-15T19:54:31.741Z,1.68
2023-02-15T19:56:59.639Z,1.82
2023-02-15T19:59:32.365Z,1.78
2023-02-15T20:02:00.258Z,1.86
2023-02-15T20:04:28.271Z,1.48
2023-02-15T20:06:57.285Z,1.62
2023-02-15T20:09:35.599Z,1.65
2023-02-15T20:12:03.756Z,1.40
2023-02-15T20:14:31.576Z,1.64
2023-02-15T20:16:59.321Z,1.78
2023-02-15T20:19:27.121Z,1.53
2023-02-15T20:21:55.055Z,1.84
2023-02-15T20:24:30.934Z,1.80
2023-02-15T20:26:59.325Z,1.63
2023-02-15T20:29:26.980Z,1.45
2023-02-15T20:31:55.630Z,1.33
2023-02-15T20:34:23.556Z,0.85
2023-02-15T20:36:51.377Z,1.06
2023-02-15T20:39:20.645Z,1.58
2023-02-15T20:41:48.490Z,1.58
2023-02-15T20:44:26.101Z,0.76
2023-02-15T20:46:55.423Z,1.01
2023-02-15T20:49:26.564Z,0.67
2023-02-15T20:51:54.843Z,1.04
2023-02-15T20:54:23.918Z,1.39
2023-02-15T20:56:52.031Z,1.12
2023-02-15T20:59:30.745Z,0.69
2023-02-15T21:02:15.515Z,1.03
2023-02-15T21:04:43.342Z,1.19
2023-02-15T21:07:17.812Z,0.88
2023-02-15T21:09:45.777Z,0.74
2023-02-15T21:12:17.769Z,0.33
2023-02-15T21:14:45.989Z,0.65
2023-02-15T21:17:15.084Z,0.32
2023-02-15T21:19:42.866Z,0.30
2023-02-15T21:22:14.155Z,0.11
2023-02-15T21:24:46.921Z,0.06
2023-02-15T21:27:14.740Z,0.35
2023-02-15T21:29:42.400Z,0.12
2023-02-15T21:32:10.657Z,-0.43
2023-02-15T21:34:39.994Z,-0.09
2023-02-15T21:37:28.416Z,-0.09
2023-02-15T21:39:56.270Z,-0.17
2023-02-15T21:42:42.464Z,-0.21
2023-02-15T21:45:35.729Z,0.15
2023-02-15T21:48:03.721Z,-0.16
2023-02-15T21:50:50.313Z,-0.24
2023-02-15T21:53:24.571Z,-0.15
2023-02-15T21:55:57.220Z,-0.30
2023-02-15T21:58:27.202Z,-0.18
2023-02-15T22:00:55.617Z,-0.19
2023-02-15T22:03:24.285Z,-0.07
2023-02-15T22:05:52.050Z,0.08
2023-02-15T22:08:20.054Z,0.20
2023-02-15T22:10:48.149Z,0.12
2023-02-15T22:13:18.984Z,-0.03
2023-02-15T22:15:47.318Z,-0.23
2023-02-15T22:18:24.263Z,-0.08
2023-02-15T22:20:52.607Z,-0.20
2023-02-15T22:23:20.615Z,-0.27
2023-02-15T22:25:56.851Z,-0.62
2023-02-15T22:28:31.555Z,-0.36
2023-02-15T22:30:59.375Z,-0.22
2023-02-15T22:33:29.098Z,-1.03
2023-02-15T22:35:56.884Z,-0.65
2023-02-15T22:38:24.681Z,-0.66
2023-02-15T22:40:53.606Z,-0.42
2023-02-15T22:43:38.481Z,0.01
2023-02-15T22:46:15.230Z,-0.09
2023-02-15T22:48:44.301Z,0.04
2023-02-15T22:51:15.731Z,0.08
2023-02-15T22:53:43.427Z,0.18
2023-02-15T22:56:22.318Z,0.11
2023-02-15T22:58:50.553Z,0.20
2023-02-15T23:01:26.895Z,-0.24
2023-02-15T23:03:54.685Z,-0.60
2023-02-15T23:06:22.404Z,-0.32
2023-02-15T23:08:50.111Z,-0.30
2023-02-15T23:11:18.437Z,-0.60
2023-02-15T23:13:47.638Z,-0.59
2023-02-15T23:16:16.413Z,-0.73
2023-02-15T23:18:45.689Z,-0.43
2023-02-15T23:21:32.473Z,-0.41
2023-02-15T23:24:22.548Z,-0.52
2023-02-15T23:26:50.436Z,-0.79
2023-02-15T23:29:20.143Z,-0.74
2023-02-15T23:31:50.003Z,-0.58
2023-02-15T23:34:22.855Z,-0.69
2023-02-15T23:36:50.694Z,-1.03
2023-02-15T23:39:40.941Z,-0.66
2023-02-15T23:42:19.509Z,-0.88
2023-02-15T23:44:47.396Z,-0.86
2023-02-15T23:47:46.031Z,-0.80
2023-02-15T23:50:24.821Z,-0.92
2023-02-15T23:52:52.897Z,-0.89
2023-02-15T23:55:20.721Z,-1.29
2023-02-15T23:57:48.560Z,-0.70
